Pagina principale
METAR-TAF:

METAR-TAF

Aeroporti :

Aeroporto di Birmingham

Birmingham, Inghilterra

latitudine: 52-27N, longitudine: 001-44W, altezza: 99 m

Osservazione

Il bollettino è stato emesso 40 minuti fa, alle 15:50 UTC
Vento 11 kt da est
Temperature 23°C
Umidità 31%
Pressione 1022 hPa
Visibilità 10 km o più
nessuna nube inferiore a 1500 m e nessun cumulonembo

METAR: EGBB 311550Z 10011KT CAVOK 23/05 Q1022

Ora: 17:30 (16:30 UTC)

Previsione

Il bollettino è stato emesso 3 ore e 53 minuti fa, alle 12:37 UTC
Previsione valida dal 31 alle 12 UTC al 01 alle 12 UTC
Vento 8 kt da est
Visibilità 10 km o più
nessuna nube inferiore a 1500 m e nessun cumulonembo

TAF: EGBB 311237Z 3112/0112 09008KT CAVOK

Osservazioni e previsioni meteorologiche di più di 4000 aeroporti (messaggi METAR e TAF).

Le stazioni disponibili sono rappresentate dai dischi gialli e rossi sulla carta.

Puntare il mouse per vedere il nome della stazione.

Clicca sopra per visualizzare le osservazioni e previsioni meteorologiche.

Per cambiare la mappa : fare clic sui pulsanti verdi con una croce nera per ingrandire, il pulsante verde con un trattino per diminuire, o sulla freccia verde per le mappe adiacenti.


METAR-TAF: